Time;durP1;ratioP1;P1;durP2;ratioP2;P2;SDS_P1;SDS_P2;PMS_P1;PMS_P2;Temp;Humidity;BMP_temperature;BMP_pressure;BME280_temperature;BME280_humidity;BME280_pressure;Samples;Min_cycle;Max_cycle;Signal;HPM_P1;HPM_P2
2023/05/17 00:01:30;;;;;;;0.00;0.00;;;7.20;99.90;;;;;;5090318;28;20267;-56
2023/05/17 00:03:56;;;;;;;0.00;0.00;;;7.20;99.90;;;;;;5090139;28;20208;-56
2023/05/17 00:06:21;;;;;;;0.00;0.00;;;7.20;99.90;;;;;;5090861;28;20184;-56
2023/05/17 00:08:47;;;;;;;0.00;0.00;;;7.20;99.90;;;;;;5090207;28;20177;-56
2023/05/17 00:11:13;;;;;;;0.00;0.00;;;7.10;99.90;;;;;;5089970;28;20184;-56
2023/05/17 00:13:40;;;;;;;0.00;0.00;;;7.10;99.90;;;;;;5090360;28;20180;-56
2023/05/17 00:16:06;;;;;;;0.00;0.00;;;7.10;99.90;;;;;;5089927;28;20180;-56
2023/05/17 00:18:31;;;;;;;0.00;0.00;;;7.10;99.90;;;;;;5090278;28;20271;-56
2023/05/17 00:20:57;;;;;;;0.00;0.00;;;7.10;99.90;;;;;;5089949;28;20706;-56
2023/05/17 00:23:22;;;;;;;0.20;0.20;;;7.10;99.90;;;;;;5090024;28;20229;-56
2023/05/17 00:25:48;;;;;;;0.00;0.00;;;7.10;99.90;;;;;;5092043;28;20307;-56
2023/05/17 00:28:14;;;;;;;0.00;0.00;;;7.00;99.90;;;;;;5093193;28;20188;-56
2023/05/17 00:30:39;;;;;;;0.00;0.00;;;7.00;99.90;;;;;;5092267;28;20176;-56
2023/05/17 00:33:05;;;;;;;0.00;0.00;;;7.00;99.90;;;;;;5093619;28;20562;-56
2023/05/17 00:35:30;;;;;;;0.00;0.00;;;6.90;99.90;;;;;;5093023;28;20176;-56
2023/05/17 00:37:56;;;;;;;0.00;0.00;;;6.90;99.90;;;;;;5093439;28;20229;-56
2023/05/17 00:40:21;;;;;;;0.00;0.00;;;6.90;99.90;;;;;;5093453;28;20184;-56
2023/05/17 00:42:47;;;;;;;0.00;0.00;;;6.80;99.90;;;;;;5093074;28;20643;-56
2023/05/17 00:45:12;;;;;;;0.00;0.00;;;6.80;99.90;;;;;;5093113;28;20223;-56
2023/05/17 00:47:38;;;;;;;0.00;0.00;;;6.80;99.90;;;;;;5093202;28;20208;-56
2023/05/17 00:50:05;;;;;;;0.00;0.00;;;6.80;99.90;;;;;;5092947;28;20180;-56
2023/05/17 00:52:31;;;;;;;0.00;0.00;;;6.80;99.90;;;;;;5093350;28;20176;-56
2023/05/17 00:54:56;;;;;;;0.00;0.00;;;6.70;99.90;;;;;;5093123;28;20180;-56
2023/05/17 00:57:22;;;;;;;0.00;0.00;;;6.70;99.90;;;;;;5092232;28;20184;-56
2023/05/17 00:59:49;;;;;;;0.00;0.00;;;6.80;99.90;;;;;;5092279;28;20187;-57
2023/05/17 01:02:15;;;;;;;0.00;0.00;;;6.70;99.90;;;;;;5093001;28;20195;-56
2023/05/17 01:04:41;;;;;;;0.00;0.00;;;6.70;99.90;;;;;;5092670;28;20674;-56
2023/05/17 01:07:08;;;;;;;0.00;0.00;;;6.70;99.90;;;;;;5092755;28;20183;-56
2023/05/17 01:09:34;;;;;;;0.00;0.00;;;6.70;99.90;;;;;;5093237;28;20362;-56
2023/05/17 01:12:05;;;;;;;0.00;0.00;;;6.70;99.90;;;;;;5092425;28;20172;-56
2023/05/17 01:14:46;;;;;;;0.00;0.00;;;6.70;99.90;;;;;;5092848;28;20180;-56
2023/05/17 01:17:17;;;;;;;0.00;0.00;;;6.70;99.90;;;;;;5092706;28;20237;-56
2023/05/17 01:19:49;;;;;;;0.00;0.00;;;6.70;99.90;;;;;;5092949;28;20533;-56
2023/05/17 01:22:19;;;;;;;0.00;0.00;;;6.60;99.90;;;;;;5092414;28;20203;-56
2023/05/17 01:25:07;;;;;;;0.00;0.00;;;6.60;99.90;;;;;;5092374;28;20623;-56
2023/05/17 01:27:34;;;;;;;0.00;0.00;;;6.50;99.90;;;;;;5092316;28;20184;-56
2023/05/17 01:30:01;;;;;;;0.00;0.00;;;6.50;99.90;;;;;;5092532;28;20176;-56
2023/05/17 01:32:27;;;;;;;0.00;0.00;;;6.50;99.90;;;;;;5092199;28;20176;-56
2023/05/17 01:34:53;;;;;;;0.00;0.00;;;6.40;99.90;;;;;;5092070;28;20180;-56
2023/05/17 01:37:18;;;;;;;0.00;0.00;;;6.40;99.90;;;;;;5091289;28;20534;-56
2023/05/17 01:39:44;;;;;;;0.00;0.00;;;6.30;99.90;;;;;;5092564;28;20177;-56
2023/05/17 01:42:21;;;;;;;0.00;0.00;;;6.30;99.90;;;;;;5091465;28;20210;-56
2023/05/17 01:45:04;;;;;;;0.00;0.00;;;6.20;99.90;;;;;;5090125;28;20207;-56
2023/05/17 01:47:49;;;;;;;0.00;0.00;;;6.20;99.90;;;;;;5091920;28;20183;-56
2023/05/17 01:50:18;;;;;;;0.00;0.00;;;6.20;99.90;;;;;;5090618;28;20186;-57
2023/05/17 01:52:50;;;;;;;0.00;0.00;;;6.20;99.90;;;;;;5092214;28;20693;-56
2023/05/17 01:55:41;;;;;;;0.00;0.00;;;6.10;99.90;;;;;;5091891;28;20180;-56
2023/05/17 01:58:09;;;;;;;0.00;0.00;;;6.10;99.90;;;;;;5092384;28;20222;-56
2023/05/17 02:00:37;;;;;;;0.00;0.00;;;6.10;99.90;;;;;;5092276;28;20629;-56
2023/05/17 02:03:02;;;;;;;0.00;0.00;;;6.10;99.90;;;;;;5091930;28;20184;-56
2023/05/17 02:05:28;;;;;;;0.00;0.00;;;6.10;99.90;;;;;;5092365;28;20259;-57
2023/05/17 02:07:53;;;;;;;0.00;0.00;;;6.10;99.90;;;;;;5091587;28;20177;-57
2023/05/17 02:10:19;;;;;;;0.00;0.00;;;6.10;99.90;;;;;;5091970;28;20180;-57
2023/05/17 02:12:45;;;;;;;0.00;0.00;;;6.00;99.90;;;;;;5092294;28;20250;-56
2023/05/17 02:15:12;;;;;;;0.00;0.00;;;6.00;99.90;;;;;;5091776;28;20210;-56
2023/05/17 02:17:39;;;;;;;0.17;0.17;;;6.10;99.90;;;;;;5091361;28;20207;-56
2023/05/17 02:20:07;;;;;;;0.00;0.00;;;6.10;99.90;;;;;;5091653;28;20262;-57
2023/05/17 02:22:32;;;;;;;0.00;0.00;;;6.10;99.90;;;;;;5091864;28;20187;-57
2023/05/17 02:24:58;;;;;;;0.00;0.00;;;6.10;99.90;;;;;;5091046;28;20228;-57
2023/05/17 02:27:23;;;;;;;0.00;0.00;;;6.20;99.90;;;;;;5091643;28;20233;-56
2023/05/17 02:29:49;;;;;;;0.00;0.00;;;6.20;99.90;;;;;;5091903;28;20180;-56
2023/05/17 02:32:14;;;;;;;0.00;0.00;;;6.20;99.90;;;;;;5091432;28;20180;-56
2023/05/17 02:34:40;;;;;;;0.00;0.00;;;6.20;99.90;;;;;;5091455;28;20188;-56
2023/05/17 02:37:05;;;;;;;0.00;0.00;;;6.20;99.90;;;;;;5091598;28;20168;-56
2023/05/17 02:39:32;;;;;;;0.10;0.10;;;6.20;99.90;;;;;;5091368;28;20176;-56
2023/05/17 02:41:58;;;;;;;0.00;0.00;;;6.20;99.90;;;;;;5091207;28;20172;-56
2023/05/17 02:44:23;;;;;;;0.00;0.00;;;6.10;99.90;;;;;;5091342;28;20702;-56
2023/05/17 02:46:49;;;;;;;0.00;0.00;;;6.10;99.90;;;;;;5090923;28;20237;-56
2023/05/17 02:49:14;;;;;;;0.00;0.00;;;6.10;99.90;;;;;;5091037;28;20582;-56
2023/05/17 02:51:40;;;;;;;0.00;0.00;;;6.00;99.90;;;;;;5091400;28;20245;-56
2023/05/17 02:54:05;;;;;;;0.20;0.20;;;6.00;99.90;;;;;;5091020;28;20188;-56
2023/05/17 02:56:31;;;;;;;0.00;0.00;;;6.00;99.90;;;;;;5091343;28;20240;-56
2023/05/17 02:59:00;;;;;;;0.00;0.00;;;6.00;99.90;;;;;;5091113;28;20592;-57
2023/05/17 03:01:26;;;;;;;0.05;0.05;;;6.00;99.90;;;;;;5090894;28;20520;-56
2023/05/17 03:03:51;;;;;;;0.00;0.00;;;5.90;99.90;;;;;;5091135;28;20204;-56
2023/05/17 03:06:17;;;;;;;0.00;0.00;;;5.90;99.90;;;;;;5090542;28;20199;-56
2023/05/17 03:08:42;;;;;;;0.00;0.00;;;5.90;99.90;;;;;;5090838;28;20229;-56
2023/05/17 03:11:08;;;;;;;0.00;0.00;;;5.90;99.90;;;;;;5091088;28;20184;-56
2023/05/17 03:13:33;;;;;;;0.00;0.00;;;5.80;99.90;;;;;;5090812;28;20180;-56
2023/05/17 03:15:59;;;;;;;0.00;0.00;;;5.80;99.90;;;;;;5090253;28;20684;-57
2023/05/17 03:18:25;;;;;;;0.00;0.00;;;5.80;99.90;;;;;;5090746;28;20180;-56
2023/05/17 03:20:50;;;;;;;0.00;0.00;;;5.80;99.90;;;;;;5090522;28;20183;-57
2023/05/17 03:23:16;;;;;;;0.00;0.00;;;5.80;99.90;;;;;;5090126;28;20623;-57
2023/05/17 03:25:41;;;;;;;0.00;0.00;;;5.80;99.90;;;;;;5090644;28;20605;-56
2023/05/17 03:28:07;;;;;;;0.00;0.00;;;5.80;99.90;;;;;;5090191;28;20202;-57
2023/05/17 03:30:32;;;;;;;0.00;0.00;;;5.80;99.90;;;;;;5090414;28;20200;-56
2023/05/17 03:32:58;;;;;;;0.00;0.00;;;5.80;99.90;;;;;;5090327;28;20258;-56
2023/05/17 03:35:23;;;;;;;0.00;0.00;;;5.80;99.90;;;;;;5090022;28;20176;-56
2023/05/17 03:37:49;;;;;;;0.00;0.00;;;5.80;99.90;;;;;;5090329;28;20182;-56
2023/05/17 03:40:14;;;;;;;0.00;0.00;;;5.80;99.90;;;;;;5090332;28;20180;-56
2023/05/17 03:42:40;;;;;;;0.10;0.10;;;5.80;99.90;;;;;;5090252;28;20188;-56
2023/05/17 03:45:06;;;;;;;0.00;0.00;;;5.70;99.90;;;;;;5089915;28;20212;-56
2023/05/17 03:47:31;;;;;;;0.08;0.08;;;5.70;99.90;;;;;;5090602;28;20229;-56
2023/05/17 03:49:57;;;;;;;0.00;0.00;;;5.70;99.90;;;;;;5089026;28;20172;-57
2023/05/17 03:52:23;;;;;;;0.03;0.03;;;5.70;99.90;;;;;;5087552;28;20172;-56
2023/05/17 03:54:50;;;;;;;0.00;0.00;;;5.70;99.90;;;;;;5089911;28;20263;-56
2023/05/17 03:57:15;;;;;;;0.00;0.00;;;5.70;99.90;;;;;;5090803;28;20657;-55
2023/05/17 03:59:41;;;;;;;0.00;0.00;;;5.70;99.90;;;;;;5090601;28;20176;-55
2023/05/17 04:02:06;;;;;;;0.00;0.00;;;5.70;99.90;;;;;;5094200;28;20237;-56
2023/05/17 04:04:32;;;;;;;0.00;0.00;;;5.70;99.90;;;;;;5093836;28;20298;-55
2023/05/17 04:06:57;;;;;;;0.00;0.00;;;5.70;99.90;;;;;;5094042;28;20176;-56
2023/05/17 04:09:23;;;;;;;0.00;0.00;;;5.80;99.90;;;;;;5092736;28;20176;-56
2023/05/17 04:11:48;;;;;;;0.00;0.00;;;5.80;99.90;;;;;;5086469;28;20194;-56
2023/05/17 04:14:14;;;;;;;0.00;0.00;;;5.90;99.90;;;;;;5093122;28;20806;-55
2023/05/17 04:16:39;;;;;;;0.10;0.10;;;5.90;99.90;;;;;;5082369;28;20661;-55
2023/05/17 04:19:05;;;;;;;0.00;0.00;;;6.00;99.90;;;;;;5092547;28;20172;-56
2023/05/17 04:21:31;;;;;;;0.00;0.00;;;6.10;99.90;;;;;;5093202;28;20181;-56
2023/05/17 04:23:57;;;;;;;0.00;0.00;;;6.10;99.90;;;;;;5093176;28;20224;-56
2023/05/17 04:26:22;;;;;;;0.00;0.00;;;6.20;99.90;;;;;;5093446;28;20172;-55
2023/05/17 04:28:48;;;;;;;0.20;0.20;;;6.20;99.90;;;;;;5093428;28;20221;-56
2023/05/17 04:31:17;;;;;;;0.00;0.00;;;6.30;99.90;;;;;;5093434;28;20195;-56
2023/05/17 04:33:43;;;;;;;0.00;0.00;;;6.40;99.90;;;;;;5093629;28;20198;-55
2023/05/17 04:36:09;;;;;;;0.00;0.00;;;6.50;99.90;;;;;;5093460;28;20194;-56
2023/05/17 04:38:34;;;;;;;0.10;0.10;;;6.60;99.90;;;;;;5093379;28;20268;-56
2023/05/17 04:41:03;;;;;;;0.00;0.00;;;6.70;99.90;;;;;;5093246;28;20165;-56
2023/05/17 04:43:29;;;;;;;0.00;0.00;;;6.90;99.90;;;;;;5093089;28;20180;-55
2023/05/17 04:45:58;;;;;;;0.00;0.00;;;7.00;99.90;;;;;;5093140;28;20195;-56
2023/05/17 04:48:27;;;;;;;0.00;0.00;;;7.20;99.90;;;;;;5093140;28;20176;-56
2023/05/17 04:50:53;;;;;;;0.00;0.00;;;7.40;99.90;;;;;;5092905;28;20266;-56
2023/05/17 04:53:19;;;;;;;0.00;0.00;;;7.70;99.90;;;;;;5092917;28;20574;-56
2023/05/17 04:55:46;;;;;;;0.00;0.00;;;8.10;99.90;;;;;;5093011;28;20237;-56
2023/05/17 04:58:12;;;;;;;0.00;0.00;;;8.50;99.90;;;;;;5092974;28;20176;-56
2023/05/17 05:00:38;;;;;;;0.00;0.00;;;8.90;99.90;;;;;;5092938;28;20619;-56
2023/05/17 05:03:03;;;;;;;0.00;0.00;;;9.20;99.90;;;;;;5092812;28;20183;-56
2023/05/17 05:05:30;;;;;;;0.00;0.00;;;9.60;99.90;;;;;;5092691;28;20268;-56
2023/05/17 05:07:56;;;;;;;0.00;0.00;;;9.90;99.90;;;;;;5092606;28;20176;-56
2023/05/17 05:10:22;;;;;;;0.00;0.00;;;10.30;99.90;;;;;;5092573;28;20186;-56
2023/05/17 05:12:47;;;;;;;0.00;0.00;;;10.70;99.90;;;;;;5092858;28;20172;-56
2023/05/17 05:15:13;;;;;;;0.00;0.00;;;11.10;99.90;;;;;;5092631;28;20180;-57
2023/05/17 05:17:38;;;;;;;0.10;0.10;;;11.30;99.90;;;;;;5089897;28;20179;-56
2023/05/17 05:20:05;;;;;;;0.00;0.00;;;11.60;99.90;;;;;;5072524;28;20172;-56
2023/05/17 05:22:31;;;;;;;0.00;0.00;;;11.90;99.90;;;;;;5072473;28;20177;-56
2023/05/17 05:24:56;;;;;;;0.00;0.00;;;12.10;99.90;;;;;;5071916;28;20772;-56
2023/05/17 05:27:22;;;;;;;0.00;0.00;;;12.30;99.90;;;;;;5072200;28;20176;-56
2023/05/17 05:29:47;;;;;;;0.00;0.00;;;12.40;99.90;;;;;;5072286;28;20204;-56
2023/05/17 05:32:14;;;;;;;0.00;0.00;;;12.70;99.90;;;;;;5072150;28;20710;-56
2023/05/17 05:34:40;;;;;;;0.00;0.00;;;13.10;99.90;;;;;;5072096;28;20184;-56
2023/05/17 05:37:05;;;;;;;0.00;0.00;;;13.60;99.70;;;;;;5072096;28;20172;-56
2023/05/17 05:39:31;;;;;;;0.00;0.00;;;14.00;99.40;;;;;;5072179;28;20185;-56
2023/05/17 05:41:56;;;;;;;0.00;0.00;;;14.50;98.70;;;;;;5072004;28;20169;-56
2023/05/17 05:44:22;;;;;;;0.00;0.00;;;15.10;97.90;;;;;;5071818;28;20212;-57
2023/05/17 05:46:48;;;;;;;0.00;0.00;;;15.70;96.90;;;;;;5071779;28;20173;-56
2023/05/17 05:49:13;;;;;;;0.00;0.00;;;16.30;94.80;;;;;;5071646;28;20173;-56
2023/05/17 05:51:39;;;;;;;0.00;0.00;;;16.80;94.00;;;;;;5071729;28;20223;-57
2023/05/17 05:54:04;;;;;;;0.00;0.00;;;17.10;92.80;;;;;;5071617;28;20176;-56
2023/05/17 05:56:30;;;;;;;0.00;0.00;;;17.30;91.60;;;;;;5071755;28;20234;-56
2023/05/17 05:58:56;;;;;;;0.00;0.00;;;17.60;91.20;;;;;;5071398;28;20180;-57
2023/05/17 06:01:24;;;;;;;0.00;0.00;;;18.10;90.10;;;;;;5071686;28;20309;-57
2023/05/17 06:03:50;;;;;;;0.00;0.00;;;18.40;86.70;;;;;;5072854;28;20206;-57
2023/05/17 06:06:17;;;;;;;0.00;0.00;;;18.90;83.20;;;;;;5091060;28;20188;-57
2023/05/17 06:08:45;;;;;;;0.00;0.00;;;19.50;81.80;;;;;;5091063;28;20172;-57
2023/05/17 06:11:12;;;;;;;0.00;0.00;;;20.00;77.40;;;;;;5077894;28;20196;-56
2023/05/17 06:13:37;;;;;;;0.00;0.00;;;20.50;75.20;;;;;;5091248;28;20650;-57
2023/05/17 06:16:04;;;;;;;0.00;0.00;;;20.80;71.30;;;;;;5091326;28;20219;-57
2023/05/17 06:18:30;;;;;;;0.00;0.00;;;20.90;71.00;;;;;;5091710;28;20184;-56
2023/05/17 06:20:55;;;;;;;0.00;0.00;;;21.30;70.20;;;;;;5091871;28;20921;-57
2023/05/17 06:23:21;;;;;;;0.00;0.00;;;21.50;67.20;;;;;;5091542;28;20191;-57
2023/05/17 06:25:47;;;;;;;0.00;0.00;;;21.60;66.00;;;;;;5091865;28;20236;-57
2023/05/17 06:28:12;;;;;;;0.00;0.00;;;21.90;64.50;;;;;;5091904;28;20242;-57
2023/05/17 06:30:38;;;;;;;0.00;0.00;;;22.30;62.30;;;;;;5091803;28;20259;-56
2023/05/17 06:33:03;;;;;;;0.00;0.00;;;22.50;60.40;;;;;;5091730;28;20527;-57
2023/05/17 06:35:29;;;;;;;0.00;0.00;;;22.40;60.00;;;;;;5092019;28;20192;-57
2023/05/17 06:37:54;;;;;;;0.00;0.00;;;22.50;58.80;;;;;;5091816;28;20171;-57
2023/05/17 06:40:21;;;;;;;0.00;0.00;;;22.50;58.60;;;;;;5091766;28;20172;-57
2023/05/17 06:42:46;;;;;;;0.00;0.00;;;22.60;57.80;;;;;;5090104;28;20188;-56
2023/05/17 06:45:12;;;;;;;0.00;0.00;;;22.70;58.70;;;;;;5089212;28;20292;-56
2023/05/17 06:47:38;;;;;;;0.00;0.00;;;22.90;57.90;;;;;;5090825;28;20531;-57
2023/05/17 06:50:04;;;;;;;0.00;0.00;;;22.90;56.70;;;;;;5090526;28;20544;-56
2023/05/17 06:52:30;;;;;;;0.00;0.00;;;22.70;56.20;;;;;;5091038;28;20274;-56
2023/05/17 06:54:55;;;;;;;0.00;0.00;;;22.40;55.90;;;;;;5090771;28;20211;-56
2023/05/17 06:57:21;;;;;;;0.52;0.10;;;22.30;56.40;;;;;;5090654;28;20187;-57
2023/05/17 06:59:47;;;;;;;0.00;0.00;;;22.00;56.30;;;;;;5091260;28;20181;-57
2023/05/17 07:02:12;;;;;;;0.00;0.00;;;22.10;57.20;;;;;;5091282;28;20171;-57
2023/05/17 07:04:38;;;;;;;0.00;0.00;;;22.30;56.60;;;;;;5091381;28;20244;-57
2023/05/17 07:07:03;;;;;;;0.00;0.00;;;21.70;56.00;;;;;;5091269;28;20236;-57
2023/05/17 07:09:29;;;;;;;0.00;0.00;;;21.10;56.50;;;;;;5091463;28;20252;-56
2023/05/17 07:11:55;;;;;;;0.00;0.00;;;20.40;58.20;;;;;;5091191;28;20653;-57
2023/05/17 07:14:20;;;;;;;0.00;0.00;;;20.40;58.60;;;;;;5091520;28;20187;-57
2023/05/17 07:16:48;;;;;;;0.00;0.00;;;20.30;59.50;;;;;;5091298;28;20206;-57
2023/05/17 07:19:13;;;;;;;0.00;0.00;;;20.50;59.40;;;;;;5091314;28;20635;-56
2023/05/17 07:21:39;;;;;;;0.00;0.00;;;21.00;59.60;;;;;;5091319;28;20238;-57
2023/05/17 07:24:04;;;;;;;0.00;0.00;;;21.80;58.10;;;;;;5091037;28;20235;-57
2023/05/17 07:26:30;;;;;;;0.00;0.00;;;22.20;56.90;;;;;;5091455;28;20279;-57
2023/05/17 07:28:56;;;;;;;0.00;0.00;;;22.40;56.80;;;;;;5091249;28;20195;-57
2023/05/17 07:31:21;;;;;;;0.00;0.00;;;22.70;56.40;;;;;;5091352;28;20674;-56
2023/05/17 07:33:47;;;;;;;0.00;0.00;;;22.70;55.00;;;;;;5091312;28;20199;-57
2023/05/17 07:36:12;;;;;;;0.03;0.03;;;23.00;55.60;;;;;;5095770;28;20178;-57
2023/05/17 07:38:38;;;;;;;0.00;0.00;;;23.60;56.00;;;;;;5095213;28;20176;-57
2023/05/17 07:41:08;;;;;;;0.30;0.30;;;24.20;53.90;;;;;;5093980;28;20207;-57
2023/05/17 07:43:36;;;;;;;0.00;0.00;;;24.60;53.00;;;;;;5095349;28;20233;-57
2023/05/17 07:46:03;;;;;;;0.00;0.00;;;25.00;52.30;;;;;;5095179;28;20172;-57
2023/05/17 07:48:28;;;;;;;0.10;0.10;;;25.10;51.30;;;;;;5093931;28;20176;-56
2023/05/17 07:50:54;;;;;;;0.00;0.00;;;25.40;52.00;;;;;;5095040;28;20180;-57
2023/05/17 07:53:19;;;;;;;0.00;0.00;;;25.60;50.40;;;;;;5095202;28;20177;-56
2023/05/17 07:55:45;;;;;;;0.00;0.00;;;25.60;50.30;;;;;;5094990;28;20172;-56
2023/05/17 07:58:11;;;;;;;0.00;0.00;;;25.20;49.40;;;;;;5094985;28;20176;-56
2023/05/17 08:00:37;;;;;;;0.00;0.00;;;25.10;49.60;;;;;;5094792;28;20206;-56
2023/05/17 08:03:03;;;;;;;0.00;0.00;;;24.50;49.30;;;;;;5094765;28;20581;-56
2023/05/17 08:05:28;;;;;;;0.00;0.00;;;23.90;48.60;;;;;;5094846;28;20287;-56
2023/05/17 08:07:54;;;;;;;0.00;0.00;;;23.50;49.30;;;;;;5094903;28;20674;-56
2023/05/17 08:10:20;;;;;;;0.00;0.00;;;23.50;50.30;;;;;;5094796;28;20263;-56
2023/05/17 08:12:45;;;;;;;0.00;0.00;;;23.60;50.90;;;;;;5094664;28;20180;-56
2023/05/17 08:15:11;;;;;;;0.00;0.00;;;23.60;49.20;;;;;;5094666;28;20179;-56
2023/05/17 08:17:37;;;;;;;0.00;0.00;;;23.40;49.90;;;;;;5094685;28;20650;-56
2023/05/17 08:20:04;;;;;;;0.00;0.00;;;23.50;49.50;;;;;;5094455;28;20503;-55
2023/05/17 08:22:30;;;;;;;0.00;0.00;;;23.50;49.80;;;;;;5094542;28;20184;-55
2023/05/17 08:24:56;;;;;;;0.00;0.00;;;23.30;48.80;;;;;;5093775;28;20298;-56
2023/05/17 08:27:21;;;;;;;0.00;0.00;;;22.50;49.60;;;;;;5094530;28;20208;-55
2023/05/17 08:29:47;;;;;;;0.10;0.10;;;21.50;51.50;;;;;;5094408;28;20178;-55
2023/05/17 08:32:12;;;;;;;0.00;0.00;;;20.70;52.90;;;;;;5094320;28;20208;-55
2023/05/17 08:34:38;;;;;;;0.00;0.00;;;19.90;54.00;;;;;;5094295;28;20286;-55
2023/05/17 08:37:03;;;;;;;0.00;0.00;;;19.20;55.00;;;;;;5094145;28;20176;-55
2023/05/17 08:39:30;;;;;;;0.00;0.00;;;18.60;56.20;;;;;;5094238;28;20176;-55
2023/05/17 08:42:00;;;;;;;0.00;0.00;;;18.10;57.50;;;;;;5094081;28;20214;-55
2023/05/17 08:44:29;;;;;;;0.00;0.00;;;17.60;57.60;;;;;;5094111;28;20233;-55
2023/05/17 08:46:57;;;;;;;0.00;0.00;;;17.30;58.70;;;;;;5093619;28;20187;-55
2023/05/17 08:49:26;;;;;;;0.00;0.00;;;17.20;59.70;;;;;;5094080;28;20294;-55
2023/05/17 08:51:58;;;;;;;0.00;0.00;;;17.30;60.90;;;;;;5093965;28;20180;-56
2023/05/17 08:54:23;;;;;;;0.13;0.13;;;17.30;58.90;;;;;;5094002;28;20640;-55
2023/05/17 08:56:53;;;;;;;0.00;0.00;;;17.20;57.70;;;;;;5093782;28;20251;-56
2023/05/17 08:59:19;;;;;;;0.00;0.00;;;17.20;58.20;;;;;;5093733;28;20180;-55
2023/05/17 09:01:48;;;;;;;0.00;0.00;;;17.50;59.30;;;;;;5093810;28;20164;-55
2023/05/17 09:04:15;;;;;;;0.00;0.00;;;17.50;58.40;;;;;;5093649;28;20569;-55
2023/05/17 09:06:42;;;;;;;0.00;0.00;;;17.30;57.90;;;;;;5093663;28;20665;-55
2023/05/17 09:09:08;;;;;;;0.00;0.00;;;17.00;58.70;;;;;;5092429;28;20181;-56
2023/05/17 09:11:34;;;;;;;0.00;0.00;;;16.90;59.10;;;;;;5093737;28;20176;-55
2023/05/17 09:14:04;;;;;;;0.00;0.00;;;16.80;60.30;;;;;;5093440;28;20176;-55
2023/05/17 09:16:33;;;;;;;0.00;0.00;;;16.70;59.30;;;;;;5093537;28;20631;-55
2023/05/17 09:19:00;;;;;;;0.00;0.00;;;16.40;59.10;;;;;;5093322;28;20180;-55
2023/05/17 09:21:27;;;;;;;0.00;0.00;;;16.20;60.30;;;;;;5093484;28;20179;-55
2023/05/17 09:23:53;;;;;;;0.00;0.00;;;16.00;60.70;;;;;;5093029;28;20255;-55
2023/05/17 09:26:20;;;;;;;0.00;0.00;;;15.70;61.90;;;;;;5093139;28;20632;-55
2023/05/17 09:28:47;;;;;;;0.00;0.00;;;15.60;62.50;;;;;;5093271;28;20176;-55
2023/05/17 09:31:15;;;;;;;0.00;0.00;;;15.60;63.60;;;;;;5093221;28;20530;-55
2023/05/17 09:33:47;;;;;;;0.00;0.00;;;15.60;63.70;;;;;;5093161;28;20172;-55
2023/05/17 09:36:17;;;;;;;0.00;0.00;;;15.50;62.90;;;;;;5093142;28;20191;-55
2023/05/17 09:38:43;;;;;;;0.00;0.00;;;15.60;63.00;;;;;;5093202;28;20168;-55
2023/05/17 09:41:08;;;;;;;0.00;0.00;;;15.60;63.40;;;;;;5093039;28;20285;-55
2023/05/17 09:43:34;;;;;;;0.00;0.00;;;15.70;63.70;;;;;;5092960;28;20241;-55
2023/05/17 09:45:59;;;;;;;0.00;0.00;;;15.50;63.00;;;;;;5092910;28;20172;-55
2023/05/17 09:48:28;;;;;;;0.10;0.10;;;15.40;62.50;;;;;;5092864;28;20316;-55
2023/05/17 09:50:54;;;;;;;0.00;0.00;;;15.40;63.20;;;;;;5092804;28;20896;-55
2023/05/17 09:53:27;;;;;;;0.00;0.00;;;15.40;63.50;;;;;;5092843;28;20188;-55
2023/05/17 09:55:58;;;;;;;0.00;0.00;;;15.40;62.80;;;;;;5092796;28;20209;-55
2023/05/17 09:58:24;;;;;;;0.00;0.00;;;15.40;63.20;;;;;;5091959;28;20249;-55
2023/05/17 10:00:52;;;;;;;0.00;0.00;;;15.30;63.80;;;;;;5092764;28;20202;-56
2023/05/17 10:03:18;;;;;;;0.00;0.00;;;15.40;63.20;;;;;;5092397;28;20183;-55
2023/05/17 10:05:45;;;;;;;0.00;0.00;;;15.40;64.20;;;;;;5092520;28;20215;-55
2023/05/17 10:08:13;;;;;;;0.00;0.00;;;15.30;62.90;;;;;;5092489;28;20176;-55
2023/05/17 10:10:40;;;;;;;0.00;0.00;;;15.40;63.20;;;;;;5092340;28;20635;-55
2023/05/17 10:13:09;;;;;;;0.00;0.00;;;15.40;63.30;;;;;;5092382;28;20690;-56
2023/05/17 10:15:37;;;;;;;0.00;0.00;;;15.30;63.80;;;;;;5092301;28;20281;-55
2023/05/17 10:18:05;;;;;;;0.00;0.00;;;15.40;63.10;;;;;;5092306;28;20188;-55
2023/05/17 10:20:30;;;;;;;0.00;0.00;;;15.40;62.80;;;;;;5092379;28;20317;-55
2023/05/17 10:22:57;;;;;;;0.00;0.00;;;15.30;62.00;;;;;;5092142;28;20255;-55
2023/05/17 10:25:23;;;;;;;0.00;0.00;;;15.20;62.40;;;;;;5092086;28;20235;-55
2023/05/17 10:27:51;;;;;;;0.00;0.00;;;15.20;62.00;;;;;;5092188;28;20623;-55
2023/05/17 10:30:18;;;;;;;0.00;0.00;;;15.10;62.90;;;;;;5092112;28;20583;-55
2023/05/17 10:32:45;;;;;;;0.20;0.20;;;15.10;63.90;;;;;;5092288;28;20246;-55
2023/05/17 10:35:14;;;;;;;0.00;0.00;;;15.10;63.90;;;;;;5092017;28;20187;-55
2023/05/17 10:37:40;;;;;;;0.00;0.00;;;15.10;65.40;;;;;;5092085;28;20180;-55
2023/05/17 10:40:11;;;;;;;0.00;0.00;;;14.90;66.80;;;;;;5091913;28;20175;-55
2023/05/17 10:42:43;;;;;;;0.00;0.00;;;14.90;67.50;;;;;;5091863;28;20183;-55
2023/05/17 10:45:14;;;;;;;0.00;0.00;;;14.90;67.40;;;;;;5091748;28;20665;-55
2023/05/17 10:47:44;;;;;;;0.00;0.00;;;14.90;67.40;;;;;;5091940;28;20262;-55
2023/05/17 10:50:14;;;;;;;0.00;0.00;;;14.90;67.50;;;;;;5091942;28;20226;-56
2023/05/17 10:52:48;;;;;;;0.00;0.00;;;14.80;67.10;;;;;;5091815;28;20196;-55
2023/05/17 10:55:18;;;;;;;0.00;0.00;;;14.80;67.30;;;;;;5091654;28;20180;-55
2023/05/17 10:57:43;;;;;;;0.00;0.00;;;14.80;67.10;;;;;;5091722;28;20190;-55
2023/05/17 11:00:18;;;;;;;0.00;0.00;;;14.80;67.30;;;;;;5091589;28;20566;-55
2023/05/17 11:02:46;;;;;;;0.00;0.00;;;14.90;66.10;;;;;;5091357;28;20252;-55
2023/05/17 11:05:26;;;;;;;0.00;0.00;;;14.80;66.60;;;;;;5091499;28;20212;-55
2023/05/17 11:07:51;;;;;;;0.00;0.00;;;14.80;64.70;;;;;;5091495;28;20290;-56
2023/05/17 11:10:17;;;;;;;0.00;0.00;;;14.80;66.00;;;;;;5091364;28;20237;-56
2023/05/17 11:12:45;;;;;;;0.00;0.00;;;14.90;67.00;;;;;;5091674;28;20172;-58
2023/05/17 11:15:13;;;;;;;0.00;0.00;;;15.10;67.00;;;;;;5091371;28;20184;-56
2023/05/17 11:17:41;;;;;;;0.00;0.00;;;15.30;66.70;;;;;;5091425;28;20233;-56
2023/05/17 11:20:14;;;;;;;0.00;0.00;;;15.40;65.70;;;;;;5091391;28;20249;-56
2023/05/17 11:22:57;;;;;;;0.00;0.00;;;15.40;64.70;;;;;;5091433;28;20176;-56
2023/05/17 11:25:23;;;;;;;0.00;0.00;;;15.30;64.30;;;;;;5091142;28;20827;-57
2023/05/17 11:27:50;;;;;;;0.00;0.00;;;15.40;65.00;;;;;;5091406;28;20271;-57
2023/05/17 11:30:19;;;;;;;0.00;0.00;;;15.40;65.50;;;;;;5091347;28;20210;-57
2023/05/17 11:32:53;;;;;;;0.00;0.00;;;15.50;64.90;;;;;;5091486;28;20233;-57
2023/05/17 11:35:23;;;;;;;0.00;0.00;;;15.60;65.00;;;;;;5091204;28;20253;-56
2023/05/17 11:37:51;;;;;;;0.00;0.00;;;15.60;64.00;;;;;;5091293;28;20649;-56
2023/05/17 11:40:24;;;;;;;0.00;0.00;;;15.70;64.00;;;;;;5091200;28;20229;-56
2023/05/17 11:43:08;;;;;;;0.00;0.00;;;15.80;63.40;;;;;;5091146;28;20631;-56
2023/05/17 11:45:49;;;;;;;0.00;0.00;;;15.80;63.20;;;;;;5091245;28;20272;-56
2023/05/17 11:48:15;;;;;;;0.00;0.00;;;15.80;64.00;;;;;;5091095;28;20191;-56
2023/05/17 11:50:43;;;;;;;0.00;0.00;;;15.70;64.30;;;;;;5091218;28;20179;-56
2023/05/17 11:53:09;;;;;;;0.00;0.00;;;15.50;64.10;;;;;;5091103;28;20256;-56
2023/05/17 11:55:40;;;;;;;0.00;0.00;;;15.40;65.10;;;;;;5091053;28;20172;-57
2023/05/17 11:58:11;;;;;;;0.00;0.00;;;15.30;65.10;;;;;;5091140;28;20180;-56
2023/05/17 12:00:40;;;;;;;0.00;0.00;;;15.20;65.50;;;;;;5091026;28;20179;-57
2023/05/17 12:03:27;;;;;;;0.00;0.00;;;15.10;65.10;;;;;;5091070;28;20638;-57
2023/05/17 12:06:11;;;;;;;0.00;0.00;;;15.10;65.70;;;;;;5090899;28;20543;-57
2023/05/17 12:08:38;;;;;;;0.00;0.00;;;15.20;65.40;;;;;;5090945;28;20683;-57
2023/05/17 12:11:05;;;;;;;0.00;0.00;;;15.20;64.20;;;;;;5091005;28;20186;-57
2023/05/17 12:13:33;;;;;;;0.00;0.00;;;15.30;64.20;;;;;;5091020;28;20180;-57
2023/05/17 12:15:59;;;;;;;0.00;0.00;;;15.40;64.60;;;;;;5090858;28;20293;-57
2023/05/17 12:18:40;;;;;;;0.00;0.00;;;15.50;64.50;;;;;;5091061;28;20587;-57
2023/05/17 12:21:08;;;;;;;0.00;0.00;;;15.70;62.10;;;;;;5092904;28;20179;-57
2023/05/17 12:23:39;;;;;;;0.00;0.00;;;15.90;62.00;;;;;;5094523;28;20204;-57
2023/05/17 12:26:09;;;;;;;0.00;0.00;;;16.10;62.40;;;;;;5094518;28;20263;-57
2023/05/17 12:28:37;;;;;;;0.00;0.00;;;16.20;62.50;;;;;;5094384;28;20702;-57
2023/05/17 12:31:05;;;;;;;0.00;0.00;;;16.20;62.10;;;;;;5094395;28;20191;-57
2023/05/17 12:33:35;;;;;;;0.00;0.00;;;16.30;62.40;;;;;;5094507;28;20263;-57
2023/05/17 12:36:02;;;;;;;0.00;0.00;;;16.50;61.80;;;;;;5094565;28;20647;-57
2023/05/17 12:38:33;;;;;;;0.00;0.00;;;16.70;62.30;;;;;;5094501;28;20188;-56
2023/05/17 12:41:11;;;;;;;0.10;0.10;;;16.90;62.60;;;;;;5093014;28;20176;-56
2023/05/17 12:43:37;;;;;;;0.00;0.00;;;17.00;60.90;;;;;;5093546;28;20719;-56
2023/05/17 12:46:21;;;;;;;0.00;0.00;;;17.20;61.10;;;;;;5094146;28;20192;-56
2023/05/17 12:48:49;;;;;;;0.00;0.00;;;17.20;58.90;;;;;;5093838;28;20207;-56
2023/05/17 12:51:22;;;;;;;0.00;0.00;;;17.30;59.30;;;;;;5093894;28;20187;-56